createdAt,value
2018-04-24T00:02:04.873Z,15.50
2018-04-24T00:04:37.009Z,15.40
2018-04-24T00:07:08.357Z,15.40
2018-04-24T00:09:41.242Z,15.40
2018-04-24T00:12:14.096Z,15.40
2018-04-24T00:14:45.500Z,15.40
2018-04-24T00:17:17.646Z,15.40
2018-04-24T00:19:50.485Z,15.30
2018-04-24T00:22:22.705Z,15.40
2018-04-24T00:24:54.042Z,15.30
2018-04-24T00:27:25.502Z,15.30
2018-04-24T00:29:58.424Z,15.30
2018-04-24T00:32:30.538Z,15.30
2018-04-24T00:35:02.824Z,15.30
2018-04-24T00:37:34.216Z,15.30
2018-04-24T00:40:06.335Z,15.30
2018-04-24T00:42:38.272Z,15.30
2018-04-24T00:45:09.625Z,15.30
2018-04-24T00:47:40.949Z,15.30
2018-04-24T00:50:13.197Z,15.30
2018-04-24T00:52:44.557Z,15.30
2018-04-24T00:55:16.699Z,15.30
2018-04-24T00:57:48.077Z,15.20
2018-04-24T01:00:19.411Z,15.20
2018-04-24T01:02:51.033Z,15.20
2018-04-24T01:05:22.394Z,15.20
2018-04-24T01:07:53.757Z,15.20
2018-04-24T01:10:25.125Z,15.10
2018-04-24T01:12:57.218Z,15.00
2018-04-24T01:15:28.597Z,15.00
2018-04-24T01:18:00.017Z,15.00
2018-04-24T01:20:32.137Z,14.90
2018-04-24T01:23:03.658Z,14.90
2018-04-24T01:25:35.031Z,14.80
2018-04-24T01:28:06.687Z,14.80
2018-04-24T01:30:38.322Z,14.80
2018-04-24T01:33:09.701Z,14.80
2018-04-24T01:35:41.114Z,14.70
2018-04-24T01:38:12.471Z,14.60
2018-04-24T01:40:43.815Z,14.60
2018-04-24T01:43:15.211Z,14.60
2018-04-24T01:45:46.533Z,14.50
2018-04-24T01:48:17.894Z,14.50
2018-04-24T01:50:49.338Z,14.50
2018-04-24T01:53:20.737Z,14.50
2018-04-24T01:55:52.830Z,14.40
2018-04-24T01:58:24.203Z,14.40
2018-04-24T02:00:55.592Z,14.40
2018-04-24T02:03:26.983Z,14.40
2018-04-24T02:05:58.343Z,14.40
2018-04-24T02:08:29.678Z,14.30
2018-04-24T02:11:01.033Z,14.30
2018-04-24T02:13:32.321Z,14.30
2018-04-24T02:16:04.493Z,14.30
2018-04-24T02:18:36.667Z,14.20
2018-04-24T02:21:07.646Z,14.20
2018-04-24T02:23:39.805Z,14.20
2018-04-24T02:26:11.911Z,14.10
2018-04-24T02:28:43.279Z,14.10
2018-04-24T02:31:14.594Z,14.10
2018-04-24T02:33:45.948Z,14.00
2018-04-24T02:36:17.342Z,14.00
2018-04-24T02:38:48.702Z,14.00
2018-04-24T02:41:20.029Z,13.90
2018-04-24T02:43:51.400Z,13.90
2018-04-24T02:46:22.567Z,13.90
2018-04-24T02:48:53.861Z,13.90
2018-04-24T02:51:25.046Z,13.80
2018-04-24T02:53:56.409Z,13.80
2018-04-24T02:56:28.538Z,13.80
2018-04-24T02:59:00.477Z,13.70
2018-04-24T03:01:33.799Z,13.70
2018-04-24T03:04:05.028Z,13.70
2018-04-24T03:06:36.767Z,13.70
2018-04-24T03:09:07.747Z,13.60
2018-04-24T03:11:39.693Z,13.60
2018-04-24T03:14:11.670Z,13.50
2018-04-24T03:16:42.953Z,13.50
2018-04-24T03:19:15.082Z,13.50
2018-04-24T03:21:46.730Z,13.50
2018-04-24T03:24:17.916Z,13.50
2018-04-24T03:26:49.262Z,13.50
2018-04-24T03:29:20.491Z,13.50
2018-04-24T03:31:51.498Z,13.40
2018-04-24T03:34:23.059Z,13.40
2018-04-24T03:36:54.385Z,13.40
2018-04-24T03:39:26.624Z,13.30
2018-04-24T03:41:57.896Z,13.30
2018-04-24T03:44:30.013Z,13.30
2018-04-24T03:47:01.432Z,13.30
2018-04-24T03:49:32.776Z,13.30
2018-04-24T03:52:04.129Z,13.30
2018-04-24T03:54:35.478Z,13.30
2018-04-24T03:57:06.819Z,13.30
2018-04-24T03:59:39.090Z,13.30
2018-04-24T04:02:10.578Z,13.30
2018-04-24T04:04:41.941Z,13.30
2018-04-24T04:07:14.090Z,13.30
2018-04-24T04:09:45.479Z,13.20
2018-04-24T04:12:16.802Z,13.20
2018-04-24T04:14:48.264Z,13.20
2018-04-24T04:17:36.272Z,13.20
2018-04-24T04:20:25.279Z,13.20
2018-04-24T04:23:13.269Z,13.20
2018-04-24T04:25:44.715Z,13.20
2018-04-24T04:28:16.090Z,13.20
2018-04-24T04:30:54.030Z,13.20
2018-04-24T04:33:25.433Z,13.20
2018-04-24T04:35:56.944Z,13.30
2018-04-24T04:38:28.740Z,13.30
2018-04-24T04:41:00.624Z,13.30
2018-04-24T04:43:32.019Z,13.30
2018-04-24T04:46:04.281Z,13.40
2018-04-24T04:48:35.962Z,13.30
2018-04-24T04:51:07.414Z,13.40
2018-04-24T04:53:39.514Z,13.50
2018-04-24T04:56:11.053Z,13.50
2018-04-24T04:58:42.961Z,13.50
2018-04-24T05:01:14.526Z,13.50
2018-04-24T05:03:47.458Z,13.60
2018-04-24T05:06:18.807Z,13.70
2018-04-24T05:08:50.261Z,13.70
2018-04-24T05:11:21.613Z,13.70
2018-04-24T05:13:53.026Z,13.70
2018-04-24T05:16:25.158Z,13.80
2018-04-24T05:18:57.286Z,13.80
2018-04-24T05:21:28.657Z,13.80
2018-04-24T05:24:00.137Z,13.80
2018-04-24T05:26:31.570Z,13.90
2018-04-24T05:29:03.066Z,13.90
2018-04-24T05:31:34.131Z,13.90
2018-04-24T05:34:05.492Z,13.90
2018-04-24T05:36:37.162Z,13.90
2018-04-24T05:39:08.510Z,14.00
2018-04-24T05:41:39.850Z,14.00
2018-04-24T05:44:11.185Z,14.10
2018-04-24T05:46:43.327Z,14.10
2018-04-24T05:49:14.838Z,14.10
2018-04-24T05:51:46.198Z,14.10
2018-04-24T05:54:17.578Z,14.20
2018-04-24T05:56:48.925Z,14.20
2018-04-24T05:59:21.098Z,14.20
2018-04-24T06:01:53.193Z,14.20
2018-04-24T06:04:24.938Z,14.20
2018-04-24T06:06:56.825Z,14.20
2018-04-24T06:09:29.106Z,14.30
2018-04-24T06:12:01.653Z,14.30
2018-04-24T06:14:32.979Z,14.30
2018-04-24T06:17:05.236Z,14.30
2018-04-24T06:19:36.671Z,14.30
2018-04-24T06:22:08.346Z,14.30
2018-04-24T06:24:39.698Z,14.40
2018-04-24T06:27:11.113Z,14.40
2018-04-24T06:29:43.502Z,14.40
2018-04-24T06:32:15.013Z,14.40
2018-04-24T06:34:47.139Z,14.50
2018-04-24T06:37:18.548Z,14.50
2018-04-24T06:39:50.625Z,14.60
2018-04-24T06:42:23.130Z,14.70
2018-04-24T06:44:55.386Z,14.70
2018-04-24T06:47:26.780Z,14.70
2018-04-24T06:49:59.621Z,14.80
2018-04-24T06:52:30.997Z,14.80
2018-04-24T06:55:02.487Z,14.90
2018-04-24T06:57:35.330Z,15.00
2018-04-24T07:00:06.720Z,15.00
2018-04-24T07:02:38.847Z,15.00
2018-04-24T07:05:10.260Z,15.00
2018-04-24T07:07:41.636Z,15.10
2018-04-24T07:10:13.225Z,15.10
2018-04-24T07:12:44.935Z,15.10
2018-04-24T07:15:17.498Z,15.20
2018-04-24T07:17:49.251Z,15.10
2018-04-24T07:20:20.636Z,15.20
2018-04-24T07:22:52.085Z,15.20
2018-04-24T07:25:23.437Z,15.20
2018-04-24T07:27:54.853Z,15.20
2018-04-24T07:30:26.995Z,15.30
2018-04-24T07:32:58.682Z,15.20
2018-04-24T07:35:30.995Z,15.20
2018-04-24T07:38:02.366Z,15.20
2018-04-24T07:40:33.735Z,15.30
2018-04-24T07:43:05.265Z,15.30
2018-04-24T07:45:36.601Z,15.30
2018-04-24T07:48:07.987Z,15.40
2018-04-24T07:50:40.841Z,15.40
2018-04-24T07:53:12.274Z,15.40
2018-04-24T07:55:44.490Z,15.40
2018-04-24T07:58:16.015Z,15.40
2018-04-24T08:00:47.375Z,15.40
2018-04-24T08:03:18.707Z,15.40
2018-04-24T08:05:50.077Z,15.40
2018-04-24T08:08:23.111Z,15.40
2018-04-24T08:10:55.187Z,15.40
2018-04-24T08:13:26.608Z,15.50
2018-04-24T08:15:58.593Z,15.50
2018-04-24T08:18:29.910Z,15.50
2018-04-24T08:21:01.310Z,15.50
2018-04-24T08:23:32.830Z,15.60
2018-04-24T08:26:04.979Z,15.60
2018-04-24T08:28:36.304Z,15.60
2018-04-24T08:31:07.459Z,15.70
2018-04-24T08:33:39.836Z,15.80
2018-04-24T08:36:11.402Z,15.80
2018-04-24T08:38:43.047Z,15.80
2018-04-24T08:41:14.388Z,15.80
2018-04-24T08:43:45.778Z,15.90
2018-04-24T08:46:17.110Z,15.90
2018-04-24T08:48:48.946Z,16.00
2018-04-24T08:51:20.372Z,16.00
2018-04-24T08:53:51.791Z,16.10
2018-04-24T08:56:23.246Z,16.10
2018-04-24T08:58:54.827Z,16.00
2018-04-24T09:01:26.329Z,16.00
2018-04-24T09:03:57.737Z,16.00
2018-04-24T09:06:29.157Z,16.00
2018-04-24T09:09:00.790Z,15.90
2018-04-24T09:11:32.254Z,15.90
2018-04-24T09:14:04.551Z,15.90
2018-04-24T09:16:36.519Z,15.80
2018-04-24T09:19:07.882Z,15.90
2018-04-24T09:21:39.028Z,15.90
2018-04-24T09:24:10.392Z,15.90
2018-04-24T09:26:41.756Z,15.90
2018-04-24T09:29:13.227Z,15.90
2018-04-24T09:31:44.576Z,15.90
2018-04-24T09:34:16.002Z,16.00
2018-04-24T09:36:47.580Z,16.00
2018-04-24T09:39:19.298Z,16.00
2018-04-24T09:41:50.639Z,16.00
2018-04-24T09:44:22.186Z,16.00
2018-04-24T09:46:53.548Z,15.90
2018-04-24T09:49:24.919Z,15.90
2018-04-24T09:51:56.534Z,15.90
2018-04-24T09:54:27.872Z,15.90
2018-04-24T09:56:59.302Z,15.90
2018-04-24T09:59:31.014Z,15.90
2018-04-24T10:02:03.284Z,15.80
2018-04-24T10:04:34.753Z,15.80
2018-04-24T10:07:06.490Z,15.80
2018-04-24T10:09:37.634Z,15.80
2018-04-24T10:12:08.447Z,15.80
2018-04-24T10:14:40.601Z,15.80
2018-04-24T10:17:11.955Z,15.70
2018-04-24T10:19:46.696Z,15.70
2018-04-24T10:22:18.465Z,15.80
2018-04-24T10:24:49.975Z,15.80
2018-04-24T10:27:21.391Z,15.80
2018-04-24T10:29:53.689Z,15.80
2018-04-24T10:32:24.365Z,15.80
2018-04-24T10:34:55.795Z,15.80
2018-04-24T10:37:27.147Z,15.80
2018-04-24T10:39:58.880Z,15.80
2018-04-24T10:42:31.074Z,15.90
2018-04-24T10:45:03.252Z,15.90
2018-04-24T10:47:34.987Z,15.90
2018-04-24T10:50:06.428Z,16.00
2018-04-24T10:52:38.064Z,15.90
2018-04-24T10:55:09.500Z,16.00
2018-04-24T10:57:41.582Z,16.10
2018-04-24T11:00:13.251Z,16.00
2018-04-24T11:02:45.790Z,16.10
2018-04-24T11:05:18.861Z,16.20
2018-04-24T11:07:51.067Z,16.20
2018-04-24T11:10:23.294Z,16.20
2018-04-24T11:12:55.447Z,16.30
2018-04-24T11:15:26.811Z,16.20
2018-04-24T11:17:58.736Z,16.40
2018-04-24T11:20:30.085Z,16.30
2018-04-24T11:23:01.632Z,16.40
2018-04-24T11:25:33.160Z,16.50
2018-04-24T11:28:05.369Z,16.60
2018-04-24T11:30:36.748Z,16.60
2018-04-24T11:33:08.094Z,16.70
2018-04-24T11:35:39.712Z,16.70
2018-04-24T11:38:11.067Z,16.80
2018-04-24T11:40:42.430Z,16.80
2018-04-24T11:43:13.895Z,16.90
2018-04-24T11:45:45.255Z,16.90
2018-04-24T11:48:16.665Z,16.90
2018-04-24T11:50:48.344Z,17.00
2018-04-24T11:53:19.784Z,17.00
2018-04-24T11:55:51.317Z,17.20
2018-04-24T11:58:22.727Z,17.00
2018-04-24T12:00:54.126Z,17.10
2018-04-24T12:03:25.647Z,17.20
2018-04-24T12:05:57.341Z,17.10
2018-04-24T12:08:28.798Z,17.20
2018-04-24T12:11:00.202Z,17.20
2018-04-24T12:13:36.395Z,17.20
2018-04-24T12:16:07.745Z,17.20
2018-04-24T12:18:39.123Z,17.20
2018-04-24T12:21:10.577Z,17.20
2018-04-24T12:23:41.942Z,17.30
2018-04-24T12:26:13.281Z,17.20
2018-04-24T12:28:44.674Z,17.20
2018-04-24T12:31:16.829Z,17.30
2018-04-24T12:33:48.480Z,17.20
2018-04-24T12:36:21.388Z,17.30
2018-04-24T12:38:52.850Z,17.30
2018-04-24T12:41:24.436Z,17.30
2018-04-24T12:43:55.843Z,17.30
2018-04-24T12:46:28.286Z,17.30
2018-04-24T12:48:59.658Z,17.30
2018-04-24T12:51:31.045Z,17.30
2018-04-24T12:54:02.416Z,17.40
2018-04-24T12:56:33.824Z,17.40
2018-04-24T12:59:06.065Z,17.50
2018-04-24T13:01:37.909Z,17.50
2018-04-24T13:04:09.288Z,17.60
2018-04-24T13:06:40.997Z,17.70
2018-04-24T13:09:12.384Z,17.80
2018-04-24T13:11:44.060Z,17.80
2018-04-24T13:14:16.216Z,17.90
2018-04-24T13:16:47.808Z,17.90
2018-04-24T13:19:20.000Z,18.00
2018-04-24T13:21:51.433Z,18.00
2018-04-24T13:24:23.619Z,18.10
2018-04-24T13:26:55.003Z,18.20
2018-04-24T13:29:26.371Z,18.30
2018-04-24T13:31:58.571Z,18.50
2018-04-24T13:34:29.971Z,18.50
2018-04-24T13:37:01.175Z,18.60
2018-04-24T13:39:32.790Z,18.70
2018-04-24T13:42:05.003Z,18.90
2018-04-24T13:44:37.507Z,19.00
2018-04-24T13:47:08.999Z,19.00
2018-04-24T13:49:40.590Z,19.20
2018-04-24T13:52:12.137Z,19.20
2018-04-24T13:54:43.489Z,19.30
2018-04-24T13:57:14.866Z,19.40
2018-04-24T13:59:46.254Z,19.50
2018-04-24T14:02:18.437Z,19.60
2018-04-24T14:04:49.926Z,19.60
2018-04-24T14:07:21.287Z,19.70
2018-04-24T14:09:52.663Z,19.70
2018-04-24T14:12:24.092Z,19.70
2018-04-24T14:14:55.611Z,19.70
2018-04-24T14:17:27.106Z,19.70
2018-04-24T14:26:47.878Z,19.80
2018-04-24T14:29:19.287Z,19.70
2018-04-24T14:31:50.624Z,19.60
2018-04-24T14:34:22.021Z,19.60
2018-04-24T14:36:53.690Z,19.60
2018-04-24T14:39:25.519Z,19.60
2018-04-24T14:41:58.161Z,19.70
2018-04-24T14:44:30.301Z,19.70
2018-04-24T14:47:01.659Z,19.70
2018-04-24T14:49:33.257Z,19.70
2018-04-24T14:52:04.652Z,19.70
2018-04-24T14:54:35.980Z,19.70
2018-04-24T14:57:07.674Z,19.80
2018-04-24T14:59:39.076Z,19.80
2018-04-24T15:02:10.588Z,19.90
2018-04-24T15:04:42.711Z,19.90
2018-04-24T15:07:14.191Z,19.90
2018-04-24T15:09:45.790Z,20.00
2018-04-24T15:12:17.906Z,20.00
2018-04-24T15:14:50.820Z,20.00
2018-04-24T15:17:22.993Z,20.00
2018-04-24T15:19:54.606Z,20.00
2018-04-24T15:22:26.854Z,20.10
2018-04-24T15:24:58.245Z,20.10
2018-04-24T15:27:29.574Z,20.20
2018-04-24T15:30:01.108Z,20.20
2018-04-24T15:32:33.585Z,20.30
2018-04-24T15:35:05.363Z,20.20
2018-04-24T15:37:36.850Z,20.30
2018-04-24T15:40:08.829Z,20.30
2018-04-24T15:42:40.240Z,20.40
2018-04-24T15:45:11.645Z,20.40
2018-04-24T15:47:43.021Z,20.40
2018-04-24T15:50:14.498Z,20.40
2018-04-24T15:52:46.234Z,20.40
2018-04-24T15:55:17.563Z,20.40
2018-04-24T15:57:49.018Z,20.40
2018-04-24T16:00:20.440Z,20.30
2018-04-24T16:02:52.647Z,20.40
2018-04-24T16:05:25.081Z,20.40
2018-04-24T16:07:57.316Z,20.40
2018-04-24T16:10:28.688Z,20.40
2018-04-24T16:13:00.134Z,20.40
2018-04-24T16:15:31.969Z,20.40
2018-04-24T16:18:03.379Z,20.40
2018-04-24T16:20:35.782Z,20.40
2018-04-24T16:23:07.204Z,20.30
2018-04-24T16:25:38.904Z,20.40
2018-04-24T16:28:10.484Z,20.30
2018-04-24T16:30:42.164Z,20.30
2018-04-24T16:33:14.251Z,20.20
2018-04-24T16:35:45.642Z,20.20
2018-04-24T16:38:17.206Z,20.20
2018-04-24T16:40:48.579Z,20.20
2018-04-24T16:43:21.442Z,20.20
2018-04-24T16:45:52.801Z,20.20
2018-04-24T16:48:24.175Z,20.20
2018-04-24T16:50:56.262Z,20.20
2018-04-24T16:53:28.391Z,20.10
2018-04-24T16:56:02.693Z,20.10
2018-04-24T16:58:35.005Z,20.10
2018-04-24T17:01:06.430Z,20.10
2018-04-24T17:03:39.345Z,20.00
2018-04-24T17:06:11.513Z,20.00
2018-04-24T17:08:43.196Z,20.00
2018-04-24T17:11:15.603Z,20.00
2018-04-24T17:13:48.075Z,20.00
2018-04-24T17:16:19.435Z,20.00
2018-04-24T17:18:50.853Z,20.00
2018-04-24T17:21:22.192Z,20.00
2018-04-24T17:23:53.620Z,19.90
2018-04-24T17:26:25.770Z,19.90
2018-04-24T17:28:57.198Z,19.90
2018-04-24T17:31:28.645Z,19.90
2018-04-24T17:34:00.159Z,19.90
2018-04-24T17:36:32.561Z,19.80
2018-04-24T17:39:03.770Z,19.80
2018-04-24T17:41:35.861Z,19.80
2018-04-24T17:44:07.472Z,19.80
2018-04-24T17:46:39.569Z,19.70
2018-04-24T17:49:11.062Z,19.70
2018-04-24T17:51:45.374Z,19.70
2018-04-24T17:54:18.334Z,19.60
2018-04-24T17:56:49.776Z,19.60
2018-04-24T17:59:21.882Z,19.60
2018-04-24T18:01:54.106Z,19.50
2018-04-24T18:04:25.456Z,19.50
2018-04-24T18:06:57.362Z,19.50
2018-04-24T18:09:28.729Z,19.50
2018-04-24T18:12:00.089Z,19.50
2018-04-24T18:14:31.638Z,19.40
2018-04-24T18:17:03.041Z,19.40
2018-04-24T18:19:34.510Z,19.40
2018-04-24T18:22:05.858Z,19.40
2018-04-24T18:24:37.378Z,19.40
2018-04-24T18:27:08.777Z,19.30
2018-04-24T18:29:40.131Z,19.30
2018-04-24T18:32:12.382Z,19.30
2018-04-24T18:34:43.771Z,19.20
2018-04-24T18:37:15.363Z,19.30
2018-04-24T18:39:47.503Z,19.20
2018-04-24T18:42:18.835Z,19.20
2018-04-24T18:44:50.222Z,19.20
2018-04-24T18:47:22.612Z,19.10
2018-04-24T18:49:54.259Z,19.10
2018-04-24T18:52:25.716Z,19.10
2018-04-24T18:54:56.936Z,19.10
2018-04-24T18:57:29.043Z,19.00
2018-04-24T19:00:00.416Z,19.00
2018-04-24T19:02:31.780Z,19.00
2018-04-24T19:05:03.150Z,19.00
2018-04-24T19:07:34.550Z,19.00
2018-04-24T19:10:05.211Z,18.90
2018-04-24T19:12:37.466Z,18.90
2018-04-24T19:15:08.931Z,18.80
2018-04-24T19:17:39.995Z,18.90
2018-04-24T19:20:11.395Z,18.80
2018-04-24T19:22:42.806Z,18.80
2018-04-24T19:25:19.624Z,18.70
2018-04-24T19:27:51.894Z,18.70
2018-04-24T19:30:23.222Z,18.70
2018-04-24T19:32:54.660Z,18.70
2018-04-24T19:35:26.350Z,18.60
2018-04-24T19:37:57.807Z,18.60
2018-04-24T19:40:34.584Z,18.50
2018-04-24T19:43:06.068Z,18.50
2018-04-24T19:45:37.564Z,18.50
2018-04-24T19:48:08.736Z,18.40
2018-04-24T19:50:40.206Z,18.40
2018-04-24T19:53:11.595Z,18.40
2018-04-24T19:55:43.262Z,18.40
2018-04-24T19:58:15.713Z,18.30
2018-04-24T20:00:47.072Z,18.30
2018-04-24T20:03:19.765Z,18.20
2018-04-24T20:05:50.915Z,18.20
2018-04-24T20:08:23.032Z,18.20
2018-04-24T20:10:54.421Z,18.10
2018-04-24T20:13:26.578Z,18.10
2018-04-24T20:15:58.019Z,18.10
2018-04-24T20:18:30.167Z,18.00
2018-04-24T20:21:01.755Z,18.00
2018-04-24T20:23:33.423Z,18.00
2018-04-24T20:26:05.554Z,17.90
2018-04-24T20:28:36.960Z,17.90
2018-04-24T20:31:08.126Z,17.90
2018-04-24T20:33:39.289Z,17.90
2018-04-24T20:36:10.700Z,17.90
2018-04-24T20:38:42.103Z,17.80
2018-04-24T20:41:13.874Z,17.80
2018-04-24T20:43:46.019Z,17.80
2018-04-24T20:46:17.567Z,17.80
2018-04-24T20:48:49.994Z,17.80
2018-04-24T20:51:22.106Z,17.80
2018-04-24T20:53:53.690Z,17.70
2018-04-24T20:56:25.406Z,17.80
2018-04-24T20:58:56.595Z,17.70
2018-04-24T21:01:28.014Z,17.80
2018-04-24T21:03:59.383Z,17.70
2018-04-24T21:06:30.795Z,17.70
2018-04-24T21:09:02.175Z,17.70
2018-04-24T21:11:33.534Z,17.70
2018-04-24T21:14:04.900Z,17.70
2018-04-24T21:16:36.086Z,17.70
2018-04-24T21:19:07.467Z,17.70
2018-04-24T21:21:38.820Z,17.70
2018-04-24T21:24:10.175Z,17.70
2018-04-24T21:26:41.875Z,17.70
2018-04-24T21:29:13.295Z,17.70
2018-04-24T21:31:44.955Z,17.70
2018-04-24T21:34:16.270Z,17.70
2018-04-24T21:36:47.663Z,17.60
2018-04-24T21:39:19.432Z,17.60
2018-04-24T21:41:50.788Z,17.60
2018-04-24T21:44:22.135Z,17.60
2018-04-24T21:46:53.605Z,17.60
2018-04-24T21:49:25.713Z,17.60
2018-04-24T21:51:57.136Z,17.60
2018-04-24T21:54:28.770Z,17.60
2018-04-24T21:57:01.723Z,17.60
2018-04-24T21:59:33.251Z,17.60
2018-04-24T22:02:04.589Z,17.70
2018-04-24T22:04:35.938Z,17.70
2018-04-24T22:07:08.542Z,17.70
2018-04-24T22:09:39.939Z,17.60
2018-04-24T22:12:12.078Z,17.70
2018-04-24T22:14:43.434Z,17.70
2018-04-24T22:17:15.022Z,17.70
2018-04-24T22:19:47.177Z,17.80
2018-04-24T22:22:19.299Z,17.80
2018-04-24T22:24:50.649Z,17.70
2018-04-24T22:27:22.806Z,17.80
2018-04-24T22:29:55.094Z,17.80
2018-04-24T22:32:26.205Z,17.80
2018-04-24T22:34:57.439Z,17.80
2018-04-24T22:37:28.646Z,17.80
2018-04-24T22:40:00.291Z,17.80
2018-04-24T22:42:31.633Z,17.80
2018-04-24T22:45:04.504Z,17.80
2018-04-24T22:47:35.851Z,17.80
2018-04-24T22:50:07.290Z,17.70
2018-04-24T22:52:39.742Z,17.70
2018-04-24T22:55:11.181Z,17.70
2018-04-24T22:57:42.339Z,17.60
2018-04-24T23:00:13.425Z,17.70
2018-04-24T23:02:44.489Z,17.20
2018-04-24T23:05:15.833Z,17.60
2018-04-24T23:07:47.223Z,17.60
2018-04-24T23:10:36.790Z,17.50
2018-04-24T23:13:30.675Z,17.50
2018-04-24T23:16:24.633Z,17.50
2018-04-24T23:19:18.426Z,17.50
2018-04-24T23:21:54.054Z,17.40
2018-04-24T23:24:25.387Z,17.40
2018-04-24T23:26:56.425Z,17.40
2018-04-24T23:29:27.754Z,17.30
2018-04-24T23:31:59.106Z,17.30
2018-04-24T23:34:30.471Z,17.30
2018-04-24T23:37:01.815Z,17.30
2018-04-24T23:39:33.332Z,17.30
2018-04-24T23:42:05.531Z,17.30
2018-04-24T23:44:36.916Z,17.30
2018-04-24T23:47:09.067Z,17.30
2018-04-24T23:49:40.418Z,17.30
2018-04-24T23:52:11.779Z,17.40
2018-04-24T23:54:43.168Z,17.40
2018-04-24T23:57:14.193Z,17.40
2018-04-24T23:59:47.034Z,17.50
